Time;durP1;ratioP1;P1;durP2;ratioP2;P2;SDS_P1;SDS_P2;PMS_P1;PMS_P2;Temp;Humidity;BMP_temperature;BMP_pressure;BME280_temperature;BME280_humidity;BME280_pressure;Samples;Min_cycle;Max_cycle;Signal;HPM_P1;HPM_P2
2023/08/11 00:01:05;;;;;;;15.60;4.85;;;20.10;99.90;;;;;;5044455;28;20041;-64
2023/08/11 00:03:34;;;;;;;8.07;4.32;;;20.20;99.90;;;;;;5043911;28;20049;-64
2023/08/11 00:06:03;;;;;;;12.05;4.22;;;20.10;99.90;;;;;;5041414;28;20444;-64
2023/08/11 00:08:31;;;;;;;7.40;4.47;;;20.20;99.90;;;;;;5040452;28;20111;-64
2023/08/11 00:10:59;;;;;;;10.65;4.28;;;;;;;;;;5042967;28;20056;-65
2023/08/11 00:13:27;;;;;;;13.15;4.80;;;;;;;;;;5051718;28;20052;-65
2023/08/11 00:15:55;;;;;;;13.98;5.15;;;20.20;99.90;;;;;;5048232;28;20592;-64
2023/08/11 00:18:23;;;;;;;9.75;4.90;;;20.20;99.90;;;;;;5046232;28;20041;-65
2023/08/11 00:20:51;;;;;;;13.18;4.90;;;20.20;99.90;;;;;;5040530;28;20408;-64
2023/08/11 00:23:21;;;;;;;12.20;5.05;;;20.20;99.90;;;;;;5053089;28;20049;-64
2023/08/11 00:25:50;;;;;;;10.88;4.82;;;20.10;99.90;;;;;;5048642;28;20051;-64
2023/08/11 00:28:18;;;;;;;11.25;4.63;;;20.10;99.90;;;;;;5040482;28;20231;-64
2023/08/11 00:30:46;;;;;;;11.60;4.88;;;20.10;99.90;;;;;;5041925;28;20370;-64
2023/08/11 00:33:14;;;;;;;12.60;5.10;;;20.20;99.90;;;;;;5051657;28;20044;-65
2023/08/11 00:35:44;;;;;;;12.32;5.13;;;20.10;99.90;;;;;;5047850;28;20417;-65
2023/08/11 00:38:12;;;;;;;12.35;4.72;;;20.20;99.90;;;;;;5037223;28;20623;-65
2023/08/11 00:40:39;;;;;;;9.10;4.93;;;20.10;99.90;;;;;;5042892;28;20056;-65
2023/08/11 00:43:07;;;;;;;9.73;4.80;;;20.10;99.90;;;;;;5051033;28;20059;-65
2023/08/11 00:45:35;;;;;;;13.40;5.07;;;20.10;99.90;;;;;;5049503;28;20050;-65
2023/08/11 00:48:04;;;;;;;14.52;5.20;;;;;;;;;;5049880;28;20052;-65
2023/08/11 00:50:32;;;;;;;11.05;4.68;;;20.10;99.90;;;;;;5048878;28;20408;-65
2023/08/11 00:53:01;;;;;;;12.27;4.22;;;;;;;;;;5049756;28;20067;-65
2023/08/11 00:55:29;;;;;;;13.07;5.13;;;20.10;99.90;;;;;;5048439;28;20064;-65
2023/08/11 00:57:57;;;;;;;12.85;5.00;;;20.00;99.90;;;;;;5046460;28;20286;-65
2023/08/11 01:00:25;;;;;;;11.82;4.82;;;20.00;99.90;;;;;;5037572;28;20563;-65
2023/08/11 01:02:53;;;;;;;12.20;5.10;;;20.00;99.90;;;;;;5045754;28;20058;-65
2023/08/11 01:05:22;;;;;;;13.05;6.05;;;20.00;99.90;;;;;;5043936;28;20033;-65
2023/08/11 01:08:18;;;;;;;15.63;5.60;;;20.00;99.90;;;;;;5043345;28;20050;-65
2023/08/11 01:11:03;;;;;;;15.93;5.65;;;20.00;99.90;;;;;;5027390;28;20431;-65
2023/08/11 01:13:34;;;;;;;15.20;5.25;;;18.50;99.90;;;;;;5045089;28;20041;-64
2023/08/11 01:16:04;;;;;;;13.02;4.72;;;19.90;99.90;;;;;;5041595;28;20049;-65
2023/08/11 01:18:33;;;;;;;13.88;5.22;;;19.80;99.90;;;;;;5048201;28;20045;-64
2023/08/11 01:21:10;;;;;;;11.38;5.20;;;19.80;99.90;;;;;;5026462;28;20029;-65
2023/08/11 01:23:38;;;;;;;13.30;5.90;;;19.70;99.90;;;;;;5043130;28;20033;-65
2023/08/11 01:26:06;;;;;;;12.32;5.07;;;19.70;99.90;;;;;;5047043;28;20056;-65
2023/08/11 01:28:34;;;;;;;19.90;5.97;;;19.60;99.90;;;;;;5048277;28;20392;-64
2023/08/11 01:31:03;;;;;;;15.77;5.18;;;19.60;99.90;;;;;;5039072;28;20057;-65
2023/08/11 01:33:31;;;;;;;12.15;5.93;;;19.60;99.90;;;;;;5046216;28;20044;-65
2023/08/11 01:35:59;;;;;;;14.07;6.22;;;19.50;99.90;;;;;;5048419;28;20526;-65
2023/08/11 01:38:26;;;;;;;10.32;4.80;;;19.50;99.90;;;;;;5052262;28;20052;-65
2023/08/11 01:40:54;;;;;;;18.05;7.15;;;19.50;99.90;;;;;;5049373;28;20535;-64
2023/08/11 01:43:23;;;;;;;16.10;5.82;;;19.40;99.90;;;;;;5048379;28;20041;-65
2023/08/11 01:45:51;;;;;;;17.38;5.60;;;19.40;99.90;;;;;;5058629;28;20041;-65
2023/08/11 01:48:20;;;;;;;13.57;4.95;;;19.40;99.90;;;;;;5042145;28;20050;-65
2023/08/11 01:50:48;;;;;;;20.55;5.65;;;19.40;99.90;;;;;;5048797;28;20049;-65
2023/08/11 01:53:15;;;;;;;18.77;5.93;;;19.50;99.90;;;;;;5047974;28;20072;-65
2023/08/11 01:55:44;;;;;;;13.30;5.63;;;19.40;99.90;;;;;;5051163;28;20037;-65
2023/08/11 01:58:12;;;;;;;12.82;4.53;;;19.40;99.90;;;;;;5047308;28;20045;-65
2023/08/11 02:00:39;;;;;;;13.55;4.45;;;19.50;99.90;;;;;;5049574;28;20075;-65
2023/08/11 02:03:07;;;;;;;16.10;4.75;;;19.50;99.90;;;;;;5049760;28;20052;-65
2023/08/11 02:05:35;;;;;;;8.80;4.20;;;19.40;99.90;;;;;;5051016;28;20033;-64
2023/08/11 02:08:03;;;;;;;12.32;4.97;;;19.40;99.90;;;;;;5045639;28;20053;-65
2023/08/11 02:10:31;;;;;;;13.93;4.85;;;19.40;99.90;;;;;;5049989;28;20041;-65
2023/08/11 02:13:00;;;;;;;13.52;4.65;;;19.40;99.90;;;;;;5046341;28;20056;-65
2023/08/11 02:15:28;;;;;;;12.88;4.65;;;19.40;99.90;;;;;;5042980;28;20049;-67
2023/08/11 02:17:55;;;;;;;13.85;4.80;;;19.40;99.90;;;;;;5047833;28;20076;-65
2023/08/11 02:20:23;;;;;;;12.35;4.60;;;19.40;99.90;;;;;;5049335;28;20042;-65
2023/08/11 02:22:52;;;;;;;14.13;4.63;;;19.40;99.90;;;;;;5048382;28;20045;-64
2023/08/11 02:25:25;;;;;;;13.32;4.57;;;19.40;99.90;;;;;;5046504;28;20080;-63
2023/08/11 02:27:53;;;;;;;12.90;4.00;;;19.40;99.90;;;;;;5046746;28;20041;-64
2023/08/11 02:30:22;;;;;;;22.02;4.68;;;19.40;99.90;;;;;;5050004;28;20511;-65
2023/08/11 02:32:50;;;;;;;16.77;4.47;;;19.40;99.90;;;;;;5041395;28;20045;-64
2023/08/11 02:35:18;;;;;;;12.88;4.78;;;19.40;99.90;;;;;;5031742;28;20052;-65
2023/08/11 02:37:46;;;;;;;16.15;5.05;;;19.30;99.90;;;;;;5049369;28;20045;-65
2023/08/11 02:40:14;;;;;;;13.68;3.85;;;19.20;99.90;;;;;;5051367;28;20041;-65
2023/08/11 02:42:45;;;;;;;19.70;5.75;;;19.20;99.90;;;;;;5048194;28;20045;-65
2023/08/11 02:45:13;;;;;;;13.85;5.15;;;19.20;99.90;;;;;;5049307;28;20037;-65
2023/08/11 02:47:42;;;;;;;15.48;5.60;;;19.20;99.90;;;;;;5049761;28;20045;-65
2023/08/11 02:50:10;;;;;;;11.55;4.85;;;19.20;99.90;;;;;;5051250;28;20049;-65
2023/08/11 02:52:38;;;;;;;16.13;5.20;;;19.30;99.90;;;;;;5044047;28;20408;-65
2023/08/11 02:55:07;;;;;;;15.13;4.50;;;19.20;99.90;;;;;;5046949;28;20032;-65
2023/08/11 02:57:35;;;;;;;11.50;4.53;;;19.20;99.90;;;;;;5048894;28;20041;-64
2023/08/11 03:00:12;;;;;;;21.30;5.00;;;19.20;99.90;;;;;;5031192;28;20063;-65
2023/08/11 03:02:47;;;;;;;12.50;4.63;;;19.20;99.90;;;;;;5049705;28;20033;-65
2023/08/11 03:05:16;;;;;;;11.55;4.93;;;19.20;99.90;;;;;;5048549;28;20049;-65
2023/08/11 03:07:49;;;;;;;18.77;4.75;;;19.20;99.90;;;;;;5049552;28;20044;-64
2023/08/11 03:10:17;;;;;;;16.92;4.28;;;19.20;99.90;;;;;;5048361;28;20041;-65
2023/08/11 03:12:45;;;;;;;10.25;4.60;;;19.20;99.90;;;;;;5051460;28;20052;-64
2023/08/11 03:15:13;;;;;;;12.93;4.50;;;19.10;99.90;;;;;;5048674;28;20041;-65
2023/08/11 03:17:42;;;;;;;14.38;5.03;;;19.10;99.90;;;;;;5042997;28;20041;-65
2023/08/11 03:20:13;;;;;;;17.05;5.35;;;19.10;99.90;;;;;;5048691;28;20036;-65
2023/08/11 03:22:43;;;;;;;14.30;4.50;;;19.00;99.90;;;;;;5041348;28;20033;-65
2023/08/11 03:25:12;;;;;;;15.80;4.63;;;19.00;99.90;;;;;;5039281;28;20048;-65
2023/08/11 03:27:42;;;;;;;12.07;4.65;;;19.00;99.90;;;;;;5050961;28;20041;-64
2023/08/11 03:30:16;;;;;;;13.32;4.70;;;19.00;99.90;;;;;;5048833;28;20063;-64
2023/08/11 03:32:49;;;;;;;10.65;4.07;;;19.00;99.90;;;;;;5033720;28;20041;-64
2023/08/11 03:35:18;;;;;;;20.60;4.93;;;19.00;99.90;;;;;;5049425;28;20052;-64
2023/08/11 03:37:49;;;;;;;12.55;3.60;;;19.00;99.90;;;;;;5049277;28;20392;-64
2023/08/11 03:40:17;;;;;;;12.63;3.55;;;19.00;99.90;;;;;;5048339;28;20496;-64
2023/08/11 03:42:52;;;;;;;12.55;4.40;;;19.00;99.90;;;;;;5049558;28;20037;-64
2023/08/11 03:45:21;;;;;;;8.57;3.77;;;19.00;99.90;;;;;;5050948;28;20060;-64
2023/08/11 03:47:49;;;;;;;10.20;3.10;;;18.90;99.90;;;;;;5052050;28;20044;-64
2023/08/11 03:50:20;;;;;;;12.63;4.50;;;18.90;99.90;;;;;;5051383;28;20041;-64
2023/08/11 03:52:48;;;;;;;13.32;4.18;;;18.90;99.90;;;;;;5050740;28;20488;-63
2023/08/11 03:55:16;;;;;;;14.35;4.40;;;19.00;99.90;;;;;;5053128;28;20037;-65
2023/08/11 03:57:45;;;;;;;16.52;5.00;;;19.00;99.90;;;;;;5053102;28;20044;-64
2023/08/11 04:00:19;;;;;;;10.75;4.38;;;19.00;99.90;;;;;;5053055;28;20049;-64
2023/08/11 04:02:57;;;;;;;14.52;4.40;;;19.00;99.90;;;;;;5052974;28;20048;-64
2023/08/11 04:05:25;;;;;;;12.13;3.85;;;19.00;99.90;;;;;;5052282;28;20048;-64
2023/08/11 04:07:53;;;;;;;13.40;3.58;;;19.00;99.90;;;;;;5052666;28;20057;-65
2023/08/11 04:10:24;;;;;;;9.77;4.03;;;19.00;99.90;;;;;;5052799;28;20052;-65
2023/08/11 04:12:55;;;;;;;12.15;4.18;;;18.90;99.90;;;;;;5055980;28;20049;-64
2023/08/11 04:15:24;;;;;;;16.50;4.78;;;18.90;99.90;;;;;;5052771;28;20033;-65
2023/08/11 04:17:52;;;;;;;14.90;4.68;;;18.90;99.90;;;;;;5049547;28;20060;-64
2023/08/11 04:20:22;;;;;;;9.20;4.38;;;18.90;99.90;;;;;;5050550;28;20064;-64
2023/08/11 04:22:50;;;;;;;14.90;4.93;;;18.90;99.90;;;;;;5045815;28;20037;-64
2023/08/11 04:25:18;;;;;;;12.35;3.50;;;18.90;99.90;;;;;;5050076;28;20041;-63
2023/08/11 04:27:47;;;;;;;15.15;3.95;;;18.90;99.90;;;;;;5047927;28;20396;-63
2023/08/11 04:30:15;;;;;;;12.52;3.63;;;18.90;99.90;;;;;;5048447;28;20045;-65
2023/08/11 04:32:46;;;;;;;10.98;3.38;;;18.90;99.90;;;;;;5051626;28;20504;-64
2023/08/11 04:35:14;;;;;;;8.63;2.88;;;18.80;99.90;;;;;;5034103;28;20534;-63
2023/08/11 04:37:43;;;;;;;9.82;3.15;;;18.90;99.90;;;;;;5047113;28;20041;-63
2023/08/11 04:40:14;;;;;;;8.38;3.42;;;18.80;99.90;;;;;;5049466;28;20701;-65
2023/08/11 04:42:44;;;;;;;10.55;3.40;;;18.80;99.90;;;;;;5051680;28;20492;-63
2023/08/11 04:45:15;;;;;;;9.27;2.80;;;18.70;99.90;;;;;;5049589;28;20045;-64
2023/08/11 04:47:44;;;;;;;10.82;3.13;;;;;;;;;;5040039;28;20041;-64
2023/08/11 04:50:17;;;;;;;7.90;2.80;;;18.80;99.90;;;;;;5047553;28;20049;-62
2023/08/11 04:52:47;;;;;;;10.45;3.58;;;18.80;99.90;;;;;;5027587;28;20500;-64
2023/08/11 04:55:15;;;;;;;7.60;2.60;;;18.80;99.90;;;;;;5047084;28;20045;-65
2023/08/11 04:57:43;;;;;;;7.80;2.47;;;18.80;99.90;;;;;;5047207;28;20052;-64
2023/08/11 05:00:14;;;;;;;7.53;1.90;;;18.80;99.90;;;;;;5046358;28;20056;-65
2023/08/11 05:02:43;;;;;;;5.30;2.08;;;18.80;99.90;;;;;;5038306;28;20508;-63
2023/08/11 05:05:11;;;;;;;4.95;1.48;;;18.80;99.90;;;;;;5045410;28;20378;-63
2023/08/11 05:07:39;;;;;;;8.63;1.13;;;18.70;99.90;;;;;;5040747;28;20064;-64
2023/08/11 05:10:08;;;;;;;3.17;1.00;;;18.70;99.90;;;;;;5026426;28;20061;-64
2023/08/11 05:12:36;;;;;;;4.53;1.00;;;18.60;99.90;;;;;;5045132;28;20060;-64
2023/08/11 05:15:06;;;;;;;2.08;0.80;;;18.50;99.90;;;;;;5039186;28;20052;-64
2023/08/11 05:17:36;;;;;;;1.35;0.57;;;18.60;99.90;;;;;;5043951;28;20049;-64
2023/08/11 05:20:07;;;;;;;4.38;0.90;;;18.60;99.90;;;;;;5039926;28;20404;-65
2023/08/11 05:22:36;;;;;;;3.22;0.70;;;18.40;99.90;;;;;;5038315;28;20048;-64
2023/08/11 05:25:04;;;;;;;3.58;1.45;;;18.40;99.90;;;;;;5043951;28;20048;-64
2023/08/11 05:27:32;;;;;;;8.43;1.33;;;18.40;99.90;;;;;;5039776;28;20048;-64
2023/08/11 05:30:01;;;;;;;5.50;1.00;;;18.40;99.90;;;;;;5035373;28;20045;-64
2023/08/11 05:32:29;;;;;;;5.20;0.90;;;18.30;99.90;;;;;;5044436;28;20068;-65
2023/08/11 05:34:58;;;;;;;6.72;1.45;;;18.30;99.90;;;;;;5043084;28;20041;-64
2023/08/11 05:37:27;;;;;;;6.65;1.70;;;18.30;99.90;;;;;;5047395;28;20064;-64
2023/08/11 05:39:55;;;;;;;6.57;1.33;;;18.30;99.90;;;;;;5047061;28;20041;-64
2023/08/11 05:42:23;;;;;;;7.65;1.20;;;;;;;;;;5045685;28;20056;-64
2023/08/11 05:44:50;;;;;;;8.85;1.10;;;18.30;99.90;;;;;;5043881;28;20499;-63
2023/08/11 05:47:18;;;;;;;8.40;1.50;;;18.30;99.90;;;;;;5044416;28;21409;-62
2023/08/11 05:49:47;;;;;;;9.50;1.67;;;18.20;99.90;;;;;;5048976;28;20041;-64
2023/08/11 05:52:14;;;;;;;9.18;1.67;;;18.20;99.90;;;;;;5041677;28;20048;-64
2023/08/11 05:54:42;;;;;;;6.68;1.42;;;18.10;99.90;;;;;;5049340;28;20033;-64
2023/08/11 05:57:10;;;;;;;7.32;1.45;;;18.10;99.90;;;;;;5046059;28;20048;-65
2023/08/11 05:59:38;;;;;;;7.88;1.10;;;18.00;99.90;;;;;;5049180;28;20041;-65
2023/08/11 06:02:06;;;;;;;6.85;1.30;;;18.00;99.90;;;;;;5046815;28;20045;-65
2023/08/11 06:04:34;;;;;;;6.75;1.33;;;17.90;99.90;;;;;;5043706;28;20060;-64
2023/08/11 06:07:02;;;;;;;6.18;1.23;;;17.90;99.90;;;;;;5042528;28;20053;-64
2023/08/11 06:09:30;;;;;;;8.82;1.58;;;17.90;99.90;;;;;;5038781;28;20060;-65
2023/08/11 06:11:58;;;;;;;8.32;1.23;;;17.80;99.90;;;;;;5051504;28;20516;-65
2023/08/11 06:14:26;;;;;;;11.18;1.58;;;17.80;99.90;;;;;;5045292;28;20061;-65
2023/08/11 06:16:53;;;;;;;5.65;1.02;;;17.80;99.90;;;;;;5040710;28;20412;-65
2023/08/11 06:19:22;;;;;;;6.78;1.33;;;17.80;99.90;;;;;;5046391;28;20408;-65
2023/08/11 06:21:50;;;;;;;11.73;2.00;;;17.70;99.90;;;;;;5042998;28;20041;-64
2023/08/11 06:24:20;;;;;;;6.00;1.15;;;17.70;99.90;;;;;;5045745;28;20076;-64
2023/08/11 06:26:48;;;;;;;8.10;1.60;;;17.80;99.90;;;;;;5043293;28;20033;-65
2023/08/11 06:29:15;;;;;;;9.75;2.00;;;17.80;99.90;;;;;;5040453;28;20052;-65
2023/08/11 06:31:43;;;;;;;6.80;1.50;;;17.80;99.90;;;;;;5039607;28;20037;-64
2023/08/11 06:34:11;;;;;;;13.88;1.92;;;17.90;99.90;;;;;;5047489;28;20068;-65
2023/08/11 06:36:39;;;;;;;4.40;1.48;;;17.90;99.90;;;;;;5043145;28;20610;-65
2023/08/11 06:39:07;;;;;;;6.15;1.40;;;17.90;99.90;;;;;;5038357;28;20071;-65
2023/08/11 06:41:35;;;;;;;7.82;1.63;;;17.90;99.90;;;;;;5047197;28;20044;-65
2023/08/11 06:44:02;;;;;;;4.93;1.40;;;18.00;99.90;;;;;;5046837;28;20045;-65
2023/08/11 06:46:30;;;;;;;6.20;1.60;;;18.00;99.90;;;;;;5042739;28;20041;-65
2023/08/11 06:48:58;;;;;;;5.95;1.25;;;18.10;99.90;;;;;;5047293;28;20060;-65
2023/08/11 06:51:26;;;;;;;9.02;1.65;;;18.10;99.90;;;;;;5047037;28;20060;-65
2023/08/11 06:53:54;;;;;;;4.05;1.55;;;18.30;99.90;;;;;;5044795;28;20496;-65
2023/08/11 06:56:21;;;;;;;6.90;1.40;;;18.40;99.90;;;;;;5042602;28;20508;-65
2023/08/11 06:58:49;;;;;;;7.25;1.45;;;18.50;99.90;;;;;;5046491;28;20045;-65
2023/08/11 07:01:17;;;;;;;6.43;1.10;;;20.70;99.90;;;;;;5037461;28;20056;-65
2023/08/11 07:03:45;;;;;;;6.35;1.88;;;18.90;99.90;;;;;;5036259;28;20513;-65
2023/08/11 07:06:13;;;;;;;5.13;1.25;;;18.80;99.90;;;;;;5044083;28;20052;-64
2023/08/11 07:08:42;;;;;;;8.07;1.13;;;19.00;99.90;;;;;;5043793;28;20048;-63
2023/08/11 07:11:10;;;;;;;16.65;1.77;;;19.20;99.90;;;;;;5049926;28;20060;-65
2023/08/11 07:13:37;;;;;;;6.78;1.45;;;19.10;99.90;;;;;;5047283;28;20041;-65
2023/08/11 07:16:05;;;;;;;4.72;1.27;;;19.20;99.90;;;;;;5043173;28;20052;-65
2023/08/11 07:18:32;;;;;;;9.40;1.65;;;19.20;99.90;;;;;;5045699;28;20064;-64
2023/08/11 07:21:00;;;;;;;8.32;1.45;;;19.20;99.90;;;;;;5049479;28;20059;-64
2023/08/11 07:23:28;;;;;;;3.90;1.02;;;19.20;99.90;;;;;;5050609;28;20041;-65
2023/08/11 07:25:55;;;;;;;7.55;1.30;;;19.20;99.90;;;;;;5040534;28;20045;-65
2023/08/11 07:28:23;;;;;;;8.52;1.50;;;19.10;99.90;;;;;;5050762;28;20052;-64
2023/08/11 07:30:51;;;;;;;6.57;1.33;;;19.20;99.90;;;;;;5051318;28;20496;-64
2023/08/11 07:33:19;;;;;;;3.58;1.00;;;19.20;99.90;;;;;;5049221;28;20045;-65
2023/08/11 07:35:47;;;;;;;14.50;1.25;;;19.20;99.90;;;;;;5051429;28;20051;-65
2023/08/11 07:38:15;;;;;;;7.82;1.58;;;19.30;99.90;;;;;;5049609;28;20056;-65
2023/08/11 07:40:43;;;;;;;6.97;1.42;;;19.20;99.90;;;;;;5051927;28;20052;-64
2023/08/11 07:43:11;;;;;;;5.78;1.33;;;19.20;99.90;;;;;;5053486;28;20053;-65
2023/08/11 07:45:38;;;;;;;8.05;1.70;;;19.20;99.90;;;;;;5049055;28;20392;-65
2023/08/11 07:48:06;;;;;;;11.02;1.52;;;19.20;99.90;;;;;;5050625;28;20289;-66
2023/08/11 07:50:35;;;;;;;6.82;1.33;;;19.30;99.90;;;;;;5049433;28;20041;-65
2023/08/11 07:53:04;;;;;;;10.70;2.90;;;;;;;;;;5048633;28;20044;-65
2023/08/11 07:55:31;;;;;;;9.10;1.63;;;19.30;99.90;;;;;;5046351;28;20523;-65
2023/08/11 07:57:59;;;;;;;12.48;1.90;;;19.30;99.90;;;;;;5048598;28;20048;-65
2023/08/11 08:00:27;;;;;;;5.97;1.40;;;19.40;99.90;;;;;;5050942;28;20437;-64
2023/08/11 08:02:55;;;;;;;11.93;2.20;;;19.40;99.90;;;;;;5047651;28;20040;-65
2023/08/11 08:05:23;;;;;;;9.68;1.92;;;19.50;99.90;;;;;;5048955;28;20041;-66
2023/08/11 08:07:51;;;;;;;9.27;1.38;;;19.50;99.90;;;;;;5047041;28;20052;-65
2023/08/11 08:10:20;;;;;;;13.35;1.92;;;19.50;99.90;;;;;;5046374;28;20866;-65
2023/08/11 08:12:48;;;;;;;7.75;1.45;;;19.50;99.90;;;;;;5051298;28;20041;-65
2023/08/11 08:15:16;;;;;;;8.00;1.60;;;19.60;99.90;;;;;;5048542;28;20045;-65
2023/08/11 08:17:45;;;;;;;16.88;1.63;;;19.50;99.90;;;;;;5052353;28;20495;-65
2023/08/11 08:20:18;;;;;;;14.57;1.70;;;19.50;99.90;;;;;;5049626;28;20060;-66
2023/08/11 08:22:46;;;;;;;11.32;2.20;;;19.40;99.90;;;;;;5040300;28;20565;-65
2023/08/11 08:25:15;;;;;;;9.70;1.88;;;19.40;99.90;;;;;;5038880;28;20053;-65
2023/08/11 08:27:43;;;;;;;7.20;1.92;;;;;;;;;;5047778;28;20500;-65
2023/08/11 08:30:12;;;;;;;7.65;1.67;;;19.40;99.90;;;;;;5048858;28;20045;-65
2023/08/11 08:32:41;;;;;;;14.77;2.15;;;19.40;99.90;;;;;;5037008;28;20056;-65
2023/08/11 08:35:09;;;;;;;8.43;1.77;;;19.50;99.90;;;;;;5042643;28;20045;-64
2023/08/11 08:37:37;;;;;;;7.50;1.70;;;19.50;99.90;;;;;;5041666;28;20491;-64
2023/08/11 08:40:08;;;;;;;7.10;1.50;;;19.50;99.90;;;;;;5040410;28;20049;-64
2023/08/11 08:42:35;;;;;;;7.18;1.33;;;19.60;99.90;;;;;;5038188;28;20052;-64
2023/08/11 08:45:04;;;;;;;12.02;1.73;;;19.50;99.90;;;;;;5045588;28;20037;-64
2023/08/11 08:47:33;;;;;;;7.85;1.90;;;19.50;99.90;;;;;;5035368;28;20393;-62
2023/08/11 08:50:02;;;;;;;5.38;1.45;;;19.50;99.90;;;;;;5042219;28;20044;-63
2023/08/11 08:52:32;;;;;;;13.80;1.70;;;19.50;99.90;;;;;;5046746;28;20044;-63
2023/08/11 08:55:01;;;;;;;12.55;1.77;;;19.50;99.90;;;;;;5049512;28;20386;-63
2023/08/11 08:57:28;;;;;;;15.13;2.60;;;19.50;99.90;;;;;;5049472;28;20052;-64
2023/08/11 08:59:56;;;;;;;8.45;1.45;;;19.50;99.90;;;;;;5049393;28;20044;-63
2023/08/11 09:02:27;;;;;;;6.97;1.80;;;19.60;99.90;;;;;;5047242;28;20045;-63
2023/08/11 09:04:56;;;;;;;8.20;1.98;;;19.70;99.90;;;;;;5049582;28;20390;-63
2023/08/11 09:07:24;;;;;;;13.73;2.17;;;19.70;99.90;;;;;;5044593;28;20052;-63
2023/08/11 09:09:53;;;;;;;8.85;1.58;;;19.70;99.90;;;;;;5035553;28;20076;-63
2023/08/11 09:12:21;;;;;;;9.60;2.00;;;19.80;99.90;;;;;;5040343;28;20049;-63
2023/08/11 09:14:48;;;;;;;15.18;1.77;;;19.80;99.90;;;;;;5034943;28;20072;-63
2023/08/11 09:17:16;;;;;;;8.27;1.92;;;19.90;99.90;;;;;;5044781;28;20033;-63
2023/08/11 09:19:52;;;;;;;5.50;1.42;;;19.80;99.90;;;;;;5045395;28;20044;-63
2023/08/11 09:22:25;;;;;;;8.32;1.60;;;19.80;99.90;;;;;;5038674;28;20057;-62
2023/08/11 09:24:55;;;;;;;14.20;2.20;;;19.80;99.90;;;;;;5048768;28;20052;-62
2023/08/11 09:27:24;;;;;;;10.15;1.85;;;19.80;99.90;;;;;;5035434;28;20041;-63
2023/08/11 09:29:52;;;;;;;10.70;2.08;;;19.80;99.90;;;;;;5038452;28;20412;-63
2023/08/11 09:32:22;;;;;;;6.38;1.85;;;19.90;99.90;;;;;;5044249;28;20045;-62
2023/08/11 09:34:54;;;;;;;10.27;1.75;;;20.00;99.90;;;;;;5041902;28;20068;-62
2023/08/11 09:37:22;;;;;;;10.40;1.95;;;20.10;99.90;;;;;;5040635;28;20041;-63
2023/08/11 09:39:55;;;;;;;13.10;2.58;;;20.10;99.90;;;;;;5043674;28;20052;-62
2023/08/11 09:42:26;;;;;;;7.78;1.95;;;20.20;99.90;;;;;;5038757;28;20472;-63
2023/08/11 09:44:54;;;;;;;10.63;2.03;;;20.40;99.90;;;;;;5022203;28;20264;-63
2023/08/11 09:47:21;;;;;;;8.85;1.77;;;20.40;99.90;;;;;;5036835;28;20046;-63
2023/08/11 09:49:50;;;;;;;7.25;2.10;;;20.50;99.90;;;;;;5035830;28;20858;-62
2023/08/11 09:52:19;;;;;;;10.52;1.88;;;20.40;99.90;;;;;;5036733;28;20056;-63
2023/08/11 09:54:49;;;;;;;7.75;2.28;;;20.30;99.90;;;;;;5029108;28;20048;-63
2023/08/11 09:57:20;;;;;;;14.07;1.70;;;20.30;99.90;;;;;;5041019;28;20052;-63
2023/08/11 09:59:49;;;;;;;9.32;1.88;;;20.20;99.90;;;;;;5030403;28;20049;-62
2023/08/11 10:02:20;;;;;;;7.80;1.87;;;20.20;99.90;;;;;;5044804;28;20037;-63
2023/08/11 10:04:57;;;;;;;9.80;2.50;;;20.20;99.90;;;;;;5043578;28;20302;-65
2023/08/11 10:07:35;;;;;;;8.10;1.38;;;20.20;99.90;;;;;;5041665;28;20064;-62
2023/08/11 10:10:16;;;;;;;10.45;2.10;;;20.10;99.90;;;;;;5043405;28;20052;-62
2023/08/11 10:13:08;;;;;;;13.95;2.60;;;20.10;99.90;;;;;;5046012;28;20037;-63
2023/08/11 10:15:38;;;;;;;15.25;2.70;;;20.20;99.90;;;;;;5048889;28;20400;-62
2023/08/11 10:18:06;;;;;;;13.23;2.00;;;20.30;99.90;;;;;;5046543;28;20049;-63
2023/08/11 10:20:35;;;;;;;10.85;2.20;;;20.50;99.90;;;;;;5044562;28;20045;-62
2023/08/11 10:23:04;;;;;;;12.13;2.00;;;20.70;99.90;;;;;;5044106;28;20040;-64
2023/08/11 10:25:32;;;;;;;12.07;2.10;;;20.90;99.90;;;;;;5044573;28;20049;-64
2023/08/11 10:28:01;;;;;;;11.10;1.98;;;21.20;99.90;;;;;;5047040;28;20044;-64
2023/08/11 10:30:29;;;;;;;10.63;1.65;;;21.30;99.90;;;;;;5048077;28;20041;-65
2023/08/11 10:33:04;;;;;;;9.23;1.83;;;21.50;99.90;;;;;;5042636;28;20038;-65
2023/08/11 10:35:42;;;;;;;9.68;1.38;;;21.70;99.90;;;;;;5032402;28;20051;-63
2023/08/11 10:38:09;;;;;;;7.43;1.63;;;21.80;99.90;;;;;;5045648;28;20048;-64
2023/08/11 10:40:39;;;;;;;13.52;1.55;;;21.90;99.90;;;;;;5041565;28;20562;-65
2023/08/11 10:43:06;;;;;;;11.73;1.97;;;22.00;99.90;;;;;;5033775;28;20132;-65
2023/08/11 10:45:36;;;;;;;11.80;2.00;;;22.10;99.90;;;;;;5035793;28;20558;-64
2023/08/11 10:48:09;;;;;;;8.93;1.67;;;22.20;99.90;;;;;;5034692;28;20815;-64
2023/08/11 10:50:38;;;;;;;10.77;1.63;;;22.30;99.90;;;;;;5038491;28;20045;-65
2023/08/11 10:53:19;;;;;;;12.18;1.45;;;22.40;99.90;;;;;;5042335;28;20512;-64
2023/08/11 10:56:01;;;;;;;13.52;1.83;;;22.40;99.90;;;;;;5039828;28;20780;-65
2023/08/11 10:58:33;;;;;;;13.38;2.08;;;22.50;99.90;;;;;;5037314;28;20044;-64
2023/08/11 11:01:00;;;;;;;8.32;1.75;;;22.60;99.90;;;;;;5037415;28;20057;-64
2023/08/11 11:03:28;;;;;;;9.18;1.70;;;22.70;99.90;;;;;;5041727;28;20593;-62
2023/08/11 11:05:57;;;;;;;10.57;1.83;;;22.90;99.90;;;;;;5043469;28;20041;-64
2023/08/11 11:08:25;;;;;;;11.47;1.60;;;23.00;99.90;;;;;;5038310;28;20080;-64
2023/08/11 11:10:53;;;;;;;10.05;1.88;;;23.00;99.90;;;;;;5046411;28;20052;-64
2023/08/11 11:13:20;;;;;;;10.15;2.15;;;23.00;99.90;;;;;;5047267;28;20515;-64
2023/08/11 11:15:49;;;;;;;13.23;2.35;;;23.10;99.90;;;;;;5042691;28;20060;-64
2023/08/11 11:18:17;;;;;;;10.35;2.22;;;23.20;99.90;;;;;;5043861;28;20049;-65
2023/08/11 11:20:45;;;;;;;17.15;2.20;;;23.50;99.90;;;;;;5039854;28;20041;-64
2023/08/11 11:23:12;;;;;;;9.15;1.88;;;23.70;99.90;;;;;;5041952;28;20428;-63
2023/08/11 11:25:40;;;;;;;8.75;1.83;;;23.80;99.90;;;;;;5038694;28;20484;-64
2023/08/11 11:28:11;;;;;;;10.07;1.60;;;23.90;99.90;;;;;;5044266;28;20049;-64
2023/08/11 11:30:39;;;;;;;10.95;1.85;;;23.90;99.90;;;;;;5038095;28;20392;-65
2023/08/11 11:33:07;;;;;;;8.60;1.85;;;24.00;99.90;;;;;;5037099;28;20049;-64
2023/08/11 11:35:35;;;;;;;17.42;2.50;;;24.10;99.90;;;;;;5041153;28;20045;-65
2023/08/11 11:38:03;;;;;;;17.95;2.35;;;24.20;99.90;;;;;;5040497;28;20052;-65
2023/08/11 11:40:31;;;;;;;9.02;2.00;;;24.30;99.90;;;;;;5036910;28;20050;-65
2023/08/11 11:42:59;;;;;;;5.38;1.55;;;24.40;99.90;;;;;;5018750;28;20507;-63
2023/08/11 11:45:27;;;;;;;8.82;1.95;;;24.40;99.40;;;;;;5035305;28;20048;-65
2023/08/11 11:47:55;;;;;;;8.55;1.67;;;24.40;99.30;;;;;;5041309;28;20045;-65
2023/08/11 11:50:25;;;;;;;8.65;1.95;;;24.30;99.60;;;;;;5041335;28;21008;-66
2023/08/11 11:52:53;;;;;;;10.38;2.25;;;24.40;99.20;;;;;;5037094;28;20041;-65
2023/08/11 11:55:21;;;;;;;11.02;2.00;;;24.30;99.20;;;;;;5045846;28;20076;-65
2023/08/11 11:57:49;;;;;;;10.25;2.55;;;24.30;99.40;;;;;;5045396;28;20044;-64
2023/08/11 12:00:18;;;;;;;10.13;2.13;;;24.30;99.60;;;;;;5038751;28;20045;-65
2023/08/11 12:02:46;;;;;;;11.38;2.28;;;24.30;99.60;;;;;;5043735;28;20595;-65
2023/08/11 12:05:14;;;;;;;6.72;1.70;;;24.30;99.50;;;;;;5041936;28;20049;-65
2023/08/11 12:07:42;;;;;;;8.98;2.00;;;24.30;99.40;;;;;;5038777;28;20057;-64
2023/08/11 12:10:10;;;;;;;12.85;3.05;;;24.10;99.00;;;;;;5050367;28;20044;-63
2023/08/11 12:12:37;;;;;;;8.23;1.92;;;24.00;99.10;;;;;;5047592;28;20048;-66
2023/08/11 12:15:07;;;;;;;11.68;2.40;;;24.00;99.80;;;;;;5051201;28;20048;-65
2023/08/11 12:17:36;;;;;;;8.90;2.22;;;24.30;99.90;;;;;;5049788;28;20045;-64
2023/08/11 12:20:10;;;;;;;9.35;2.10;;;24.90;99.00;;;;;;5050473;28;20052;-65
2023/08/11 12:22:38;;;;;;;8.55;1.83;;;25.50;99.40;;;;;;5047523;28;20044;-65
2023/08/11 12:25:06;;;;;;;11.65;2.03;;;26.00;98.60;;;;;;5050107;28;20132;-65
2023/08/11 12:27:36;;;;;;;8.88;2.20;;;26.60;97.90;;;;;;5046593;28;20044;-64
2023/08/11 12:30:06;;;;;;;14.00;2.38;;;26.90;96.70;;;;;;5050089;28;20057;-64
2023/08/11 12:32:33;;;;;;;14.30;2.38;;;26.90;96.50;;;;;;5044304;28;20385;-62
2023/08/11 12:35:02;;;;;;;10.98;2.28;;;26.80;96.40;;;;;;5045552;28;20187;-62
2023/08/11 12:37:30;;;;;;;15.15;2.47;;;26.50;96.30;;;;;;5049226;28;20488;-62
2023/08/11 12:39:58;;;;;;;11.48;2.58;;;26.30;96.80;;;;;;5046836;28;20037;-62
2023/08/11 12:42:25;;;;;;;9.90;2.28;;;26.50;97.30;;;;;;5043979;28;20037;-63
2023/08/11 12:44:53;;;;;;;9.98;2.45;;;26.80;96.70;;;;;;5049566;28;20510;-63
2023/08/11 12:47:21;;;;;;;8.63;2.47;;;27.00;95.90;;;;;;5033847;28;20053;-63
2023/08/11 12:49:50;;;;;;;8.57;1.92;;;27.20;96.50;;;;;;5050825;28;20048;-65
2023/08/11 12:52:17;;;;;;;7.78;1.48;;;27.50;95.10;;;;;;5043131;28;20124;-64